sensor_id;sensor_type;location;lat;lon;timestamp;temperature;humidity
14188;DHT22;7175;51.978;5.330;2023-05-19T00:00:59;9.60;99.90
14188;DHT22;7175;51.978;5.330;2023-05-19T00:03:27;9.60;99.90
14188;DHT22;7175;51.978;5.330;2023-05-19T00:05:57;9.60;99.90
14188;DHT22;7175;51.978;5.330;2023-05-19T00:08:30;9.60;99.90
14188;DHT22;7175;51.978;5.330;2023-05-19T00:11:00;9.60;99.90
14188;DHT22;7175;51.978;5.330;2023-05-19T00:13:28;9.60;99.90
14188;DHT22;7175;51.978;5.330;2023-05-19T00:15:57;9.50;99.90
14188;DHT22;7175;51.978;5.330;2023-05-19T00:18:25;9.50;99.90
14188;DHT22;7175;51.978;5.330;2023-05-19T00:20:55;9.40;99.90
14188;DHT22;7175;51.978;5.330;2023-05-19T00:23:23;9.30;99.90
14188;DHT22;7175;51.978;5.330;2023-05-19T00:25:53;9.30;99.90
14188;DHT22;7175;51.978;5.330;2023-05-19T00:28:20;9.30;99.90
14188;DHT22;7175;51.978;5.330;2023-05-19T00:30:49;9.30;99.90
14188;DHT22;7175;51.978;5.330;2023-05-19T00:33:18;9.40;99.90
14188;DHT22;7175;51.978;5.330;2023-05-19T00:35:46;9.40;99.90
14188;DHT22;7175;51.978;5.330;2023-05-19T00:38:14;9.40;99.90
14188;DHT22;7175;51.978;5.330;2023-05-19T00:40:42;9.40;99.90
14188;DHT22;7175;51.978;5.330;2023-05-19T00:43:11;9.30;99.90
14188;DHT22;7175;51.978;5.330;2023-05-19T00:45:39;9.30;99.90
14188;DHT22;7175;51.978;5.330;2023-05-19T00:48:07;9.30;99.90
14188;DHT22;7175;51.978;5.330;2023-05-19T00:50:35;9.20;99.90
14188;DHT22;7175;51.978;5.330;2023-05-19T00:53:03;9.10;99.90
14188;DHT22;7175;51.978;5.330;2023-05-19T00:55:32;9.00;99.90
14188;DHT22;7175;51.978;5.330;2023-05-19T00:58:02;9.00;99.90
14188;DHT22;7175;51.978;5.330;2023-05-19T01:00:33;9.00;99.90
14188;DHT22;7175;51.978;5.330;2023-05-19T01:03:03;9.00;99.90
14188;DHT22;7175;51.978;5.330;2023-05-19T01:05:38;9.00;99.90
14188;DHT22;7175;51.978;5.330;2023-05-19T01:08:07;8.90;99.90
14188;DHT22;7175;51.978;5.330;2023-05-19T01:10:35;9.00;99.90
14188;DHT22;7175;51.978;5.330;2023-05-19T01:13:04;9.00;99.90
14188;DHT22;7175;51.978;5.330;2023-05-19T01:15:40;9.10;99.90
14188;DHT22;7175;51.978;5.330;2023-05-19T01:18:14;8.80;99.90
14188;DHT22;7175;51.978;5.330;2023-05-19T01:20:50;8.90;99.90
14188;DHT22;7175;51.978;5.330;2023-05-19T01:23:32;8.90;99.90
14188;DHT22;7175;51.978;5.330;2023-05-19T01:26:19;8.80;99.90
14188;DHT22;7175;51.978;5.330;2023-05-19T01:29:06;8.70;99.90
14188;DHT22;7175;51.978;5.330;2023-05-19T01:31:37;8.80;99.90
14188;DHT22;7175;51.978;5.330;2023-05-19T01:34:06;8.70;99.90
14188;DHT22;7175;51.978;5.330;2023-05-19T01:36:35;8.60;99.90
14188;DHT22;7175;51.978;5.330;2023-05-19T01:39:04;8.60;99.90
14188;DHT22;7175;51.978;5.330;2023-05-19T01:41:33;8.50;99.90
14188;DHT22;7175;51.978;5.330;2023-05-19T01:44:01;8.60;99.90
14188;DHT22;7175;51.978;5.330;2023-05-19T01:46:29;8.60;99.90
14188;DHT22;7175;51.978;5.330;2023-05-19T01:48:59;8.60;99.90
14188;DHT22;7175;51.978;5.330;2023-05-19T01:51:27;8.50;99.90
14188;DHT22;7175;51.978;5.330;2023-05-19T01:53:55;8.50;99.90
14188;DHT22;7175;51.978;5.330;2023-05-19T01:56:33;8.40;99.90
14188;DHT22;7175;51.978;5.330;2023-05-19T01:59:15;8.40;99.90
14188;DHT22;7175;51.978;5.330;2023-05-19T02:01:50;8.40;99.90
14188;DHT22;7175;51.978;5.330;2023-05-19T02:04:26;8.40;99.90
14188;DHT22;7175;51.978;5.330;2023-05-19T02:07:01;8.30;99.90
14188;DHT22;7175;51.978;5.330;2023-05-19T02:09:37;8.30;99.90
14188;DHT22;7175;51.978;5.330;2023-05-19T02:12:10;8.20;99.90
14188;DHT22;7175;51.978;5.330;2023-05-19T02:14:46;8.30;99.90
14188;DHT22;7175;51.978;5.330;2023-05-19T02:17:17;8.20;99.90
14188;DHT22;7175;51.978;5.330;2023-05-19T02:19:48;8.30;99.90
14188;DHT22;7175;51.978;5.330;2023-05-19T02:22:16;8.30;99.90
14188;DHT22;7175;51.978;5.330;2023-05-19T02:24:44;8.40;99.90
14188;DHT22;7175;51.978;5.330;2023-05-19T02:27:13;8.40;99.90
14188;DHT22;7175;51.978;5.330;2023-05-19T02:29:41;8.30;99.90
14188;DHT22;7175;51.978;5.330;2023-05-19T02:32:10;8.30;99.90
14188;DHT22;7175;51.978;5.330;2023-05-19T02:34:38;8.30;99.90
14188;DHT22;7175;51.978;5.330;2023-05-19T02:37:09;8.30;99.90
14188;DHT22;7175;51.978;5.330;2023-05-19T02:39:38;8.40;99.90
14188;DHT22;7175;51.978;5.330;2023-05-19T02:42:06;8.30;99.90
14188;DHT22;7175;51.978;5.330;2023-05-19T02:44:34;8.20;99.90
14188;DHT22;7175;51.978;5.330;2023-05-19T02:47:02;8.20;99.90
14188;DHT22;7175;51.978;5.330;2023-05-19T02:49:31;8.20;99.90
14188;DHT22;7175;51.978;5.330;2023-05-19T02:52:01;8.20;99.90
14188;DHT22;7175;51.978;5.330;2023-05-19T02:54:32;8.30;99.90
14188;DHT22;7175;51.978;5.330;2023-05-19T02:57:00;8.10;99.90
14188;DHT22;7175;51.978;5.330;2023-05-19T02:59:28;8.20;99.90
14188;DHT22;7175;51.978;5.330;2023-05-19T03:01:58;8.10;99.90
14188;DHT22;7175;51.978;5.330;2023-05-19T03:04:27;8.10;99.90
14188;DHT22;7175;51.978;5.330;2023-05-19T03:06:56;8.10;99.90
14188;DHT22;7175;51.978;5.330;2023-05-19T03:09:24;8.10;99.90
14188;DHT22;7175;51.978;5.330;2023-05-19T03:11:53;8.10;99.90
14188;DHT22;7175;51.978;5.330;2023-05-19T03:14:21;8.00;99.90
14188;DHT22;7175;51.978;5.330;2023-05-19T03:16:50;8.00;99.90
14188;DHT22;7175;51.978;5.330;2023-05-19T03:19:18;8.00;99.90
14188;DHT22;7175;51.978;5.330;2023-05-19T03:21:47;8.00;99.90
14188;DHT22;7175;51.978;5.330;2023-05-19T03:24:15;7.90;99.90
14188;DHT22;7175;51.978;5.330;2023-05-19T03:26:43;7.90;99.90
14188;DHT22;7175;51.978;5.330;2023-05-19T03:29:13;7.90;99.90
14188;DHT22;7175;51.978;5.330;2023-05-19T03:31:42;7.90;99.90
14188;DHT22;7175;51.978;5.330;2023-05-19T03:34:10;7.90;99.90
14188;DHT22;7175;51.978;5.330;2023-05-19T03:36:38;7.90;99.90
14188;DHT22;7175;51.978;5.330;2023-05-19T03:39:06;7.90;99.90
14188;DHT22;7175;51.978;5.330;2023-05-19T03:41:35;7.90;99.90
14188;DHT22;7175;51.978;5.330;2023-05-19T03:44:03;7.90;99.90
14188;DHT22;7175;51.978;5.330;2023-05-19T03:46:32;7.90;99.90
14188;DHT22;7175;51.978;5.330;2023-05-19T03:49:00;7.80;99.90
14188;DHT22;7175;51.978;5.330;2023-05-19T03:51:28;7.80;99.90
14188;DHT22;7175;51.978;5.330;2023-05-19T03:53:56;7.80;99.90
14188;DHT22;7175;51.978;5.330;2023-05-19T03:56:24;7.70;99.90
14188;DHT22;7175;51.978;5.330;2023-05-19T03:58:53;7.70;99.90
14188;DHT22;7175;51.978;5.330;2023-05-19T04:01:21;7.70;99.90
14188;DHT22;7175;51.978;5.330;2023-05-19T04:03:51;7.70;99.90
14188;DHT22;7175;51.978;5.330;2023-05-19T04:06:19;7.70;99.90
14188;DHT22;7175;51.978;5.330;2023-05-19T04:08:47;7.80;99.90
14188;DHT22;7175;51.978;5.330;2023-05-19T04:11:15;7.70;99.90
14188;DHT22;7175;51.978;5.330;2023-05-19T04:13:45;7.70;99.90
14188;DHT22;7175;51.978;5.330;2023-05-19T04:16:14;7.70;99.90
14188;DHT22;7175;51.978;5.330;2023-05-19T04:18:42;7.70;99.90
14188;DHT22;7175;51.978;5.330;2023-05-19T04:21:13;7.70;99.90
14188;DHT22;7175;51.978;5.330;2023-05-19T04:23:41;7.70;99.90
14188;DHT22;7175;51.978;5.330;2023-05-19T04:26:09;7.70;99.90
14188;DHT22;7175;51.978;5.330;2023-05-19T04:28:37;7.70;99.90
14188;DHT22;7175;51.978;5.330;2023-05-19T04:31:08;7.70;99.90
14188;DHT22;7175;51.978;5.330;2023-05-19T04:33:36;7.70;99.90
14188;DHT22;7175;51.978;5.330;2023-05-19T04:36:05;7.70;99.90
14188;DHT22;7175;51.978;5.330;2023-05-19T04:38:39;7.80;99.90
14188;DHT22;7175;51.978;5.330;2023-05-19T04:41:07;7.70;99.90
14188;DHT22;7175;51.978;5.330;2023-05-19T04:43:36;7.70;99.90
14188;DHT22;7175;51.978;5.330;2023-05-19T04:46:07;7.70;99.90
14188;DHT22;7175;51.978;5.330;2023-05-19T04:48:39;7.70;99.90
14188;DHT22;7175;51.978;5.330;2023-05-19T04:51:08;7.80;99.90
14188;DHT22;7175;51.978;5.330;2023-05-19T04:53:41;7.80;99.90
14188;DHT22;7175;51.978;5.330;2023-05-19T04:56:09;7.80;99.90
14188;DHT22;7175;51.978;5.330;2023-05-19T04:58:41;7.90;99.90
14188;DHT22;7175;51.978;5.330;2023-05-19T05:01:10;7.90;99.90
14188;DHT22;7175;51.978;5.330;2023-05-19T05:03:39;7.90;99.90
14188;DHT22;7175;51.978;5.330;2023-05-19T05:06:08;8.00;99.90
14188;DHT22;7175;51.978;5.330;2023-05-19T05:08:36;8.10;99.90
14188;DHT22;7175;51.978;5.330;2023-05-19T05:11:08;8.20;99.90
14188;DHT22;7175;51.978;5.330;2023-05-19T05:13:37;8.20;99.90
14188;DHT22;7175;51.978;5.330;2023-05-19T05:16:06;8.30;99.90
14188;DHT22;7175;51.978;5.330;2023-05-19T05:18:35;8.30;99.90
14188;DHT22;7175;51.978;5.330;2023-05-19T05:21:05;8.40;99.90
14188;DHT22;7175;51.978;5.330;2023-05-19T05:23:34;8.50;99.90
14188;DHT22;7175;51.978;5.330;2023-05-19T05:26:13;8.50;99.90
14188;DHT22;7175;51.978;5.330;2023-05-19T05:28:43;8.60;99.90
14188;DHT22;7175;51.978;5.330;2023-05-19T05:31:11;8.80;99.90
14188;DHT22;7175;51.978;5.330;2023-05-19T05:33:39;8.70;99.90
14188;DHT22;7175;51.978;5.330;2023-05-19T05:36:08;8.90;99.90
14188;DHT22;7175;51.978;5.330;2023-05-19T05:38:36;9.00;99.90
14188;DHT22;7175;51.978;5.330;2023-05-19T05:41:04;9.00;99.90
14188;DHT22;7175;51.978;5.330;2023-05-19T05:43:33;9.10;99.90
14188;DHT22;7175;51.978;5.330;2023-05-19T05:46:01;9.40;99.90
14188;DHT22;7175;51.978;5.330;2023-05-19T05:48:30;9.40;99.90
14188;DHT22;7175;51.978;5.330;2023-05-19T05:50:58;9.50;99.90
14188;DHT22;7175;51.978;5.330;2023-05-19T05:53:29;9.90;99.90
14188;DHT22;7175;51.978;5.330;2023-05-19T05:55:58;10.40;99.90
14188;DHT22;7175;51.978;5.330;2023-05-19T05:58:27;11.30;99.90
14188;DHT22;7175;51.978;5.330;2023-05-19T06:00:56;11.70;99.90
14188;DHT22;7175;51.978;5.330;2023-05-19T06:03:25;11.80;99.90
14188;DHT22;7175;51.978;5.330;2023-05-19T06:05:53;12.30;99.90
14188;DHT22;7175;51.978;5.330;2023-05-19T06:08:21;12.50;99.90
14188;DHT22;7175;51.978;5.330;2023-05-19T06:10:49;12.90;99.90
14188;DHT22;7175;51.978;5.330;2023-05-19T06:13:17;13.10;99.90
14188;DHT22;7175;51.978;5.330;2023-05-19T06:15:50;12.70;99.90
14188;DHT22;7175;51.978;5.330;2023-05-19T06:18:19;12.50;99.90
14188;DHT22;7175;51.978;5.330;2023-05-19T06:20:47;11.90;99.90
14188;DHT22;7175;51.978;5.330;2023-05-19T06:23:16;11.80;99.90
14188;DHT22;7175;51.978;5.330;2023-05-19T06:25:44;11.90;99.90
14188;DHT22;7175;51.978;5.330;2023-05-19T06:28:12;11.80;99.90
14188;DHT22;7175;51.978;5.330;2023-05-19T06:30:40;12.10;99.90
14188;DHT22;7175;51.978;5.330;2023-05-19T06:33:08;12.10;99.90
14188;DHT22;7175;51.978;5.330;2023-05-19T06:35:38;12.00;99.90
14188;DHT22;7175;51.978;5.330;2023-05-19T06:38:06;12.00;99.90
14188;DHT22;7175;51.978;5.330;2023-05-19T06:40:35;11.90;99.90
14188;DHT22;7175;51.978;5.330;2023-05-19T06:43:03;12.00;99.90
14188;DHT22;7175;51.978;5.330;2023-05-19T06:45:31;12.30;99.90
14188;DHT22;7175;51.978;5.330;2023-05-19T06:47:59;12.30;99.90
14188;DHT22;7175;51.978;5.330;2023-05-19T06:50:28;12.40;99.90
14188;DHT22;7175;51.978;5.330;2023-05-19T06:52:57;12.50;99.90
14188;DHT22;7175;51.978;5.330;2023-05-19T06:55:25;12.80;99.90
14188;DHT22;7175;51.978;5.330;2023-05-19T06:57:53;13.00;99.90
14188;DHT22;7175;51.978;5.330;2023-05-19T07:00:21;12.80;99.90
14188;DHT22;7175;51.978;5.330;2023-05-19T07:02:50;12.90;99.90
14188;DHT22;7175;51.978;5.330;2023-05-19T07:05:18;12.90;99.90
14188;DHT22;7175;51.978;5.330;2023-05-19T07:07:47;13.00;99.90
14188;DHT22;7175;51.978;5.330;2023-05-19T07:10:16;13.10;99.90
14188;DHT22;7175;51.978;5.330;2023-05-19T07:12:44;13.40;99.90
14188;DHT22;7175;51.978;5.330;2023-05-19T07:15:12;13.70;99.90
14188;DHT22;7175;51.978;5.330;2023-05-19T07:17:40;13.80;99.90
14188;DHT22;7175;51.978;5.330;2023-05-19T07:20:10;14.00;99.90
14188;DHT22;7175;51.978;5.330;2023-05-19T07:22:38;14.00;99.90
14188;DHT22;7175;51.978;5.330;2023-05-19T07:25:07;14.00;99.90
14188;DHT22;7175;51.978;5.330;2023-05-19T07:27:37;14.10;99.90
14188;DHT22;7175;51.978;5.330;2023-05-19T07:30:06;13.80;99.90
14188;DHT22;7175;51.978;5.330;2023-05-19T07:32:34;14.00;99.90
14188;DHT22;7175;51.978;5.330;2023-05-19T07:35:04;14.20;99.90
14188;DHT22;7175;51.978;5.330;2023-05-19T07:37:32;14.40;99.90
14188;DHT22;7175;51.978;5.330;2023-05-19T07:40:01;14.80;99.90
14188;DHT22;7175;51.978;5.330;2023-05-19T07:42:29;14.80;99.90
14188;DHT22;7175;51.978;5.330;2023-05-19T07:44:58;15.20;99.90
14188;DHT22;7175;51.978;5.330;2023-05-19T07:47:27;15.10;99.90
14188;DHT22;7175;51.978;5.330;2023-05-19T07:49:55;15.30;99.90
14188;DHT22;7175;51.978;5.330;2023-05-19T07:52:23;15.30;99.90
14188;DHT22;7175;51.978;5.330;2023-05-19T07:54:52;15.60;99.90
14188;DHT22;7175;51.978;5.330;2023-05-19T07:57:20;15.60;99.90
14188;DHT22;7175;51.978;5.330;2023-05-19T07:59:48;16.00;99.90
14188;DHT22;7175;51.978;5.330;2023-05-19T08:02:18;16.00;99.90
14188;DHT22;7175;51.978;5.330;2023-05-19T08:04:46;15.90;99.90
14188;DHT22;7175;51.978;5.330;2023-05-19T08:07:15;15.80;99.90
14188;DHT22;7175;51.978;5.330;2023-05-19T08:09:45;16.10;99.90
14188;DHT22;7175;51.978;5.330;2023-05-19T08:12:14;16.40;99.90
14188;DHT22;7175;51.978;5.330;2023-05-19T08:14:43;16.80;99.90
14188;DHT22;7175;51.978;5.330;2023-05-19T08:17:12;17.00;99.90
14188;DHT22;7175;51.978;5.330;2023-05-19T08:19:43;17.00;99.90
14188;DHT22;7175;51.978;5.330;2023-05-19T08:22:12;16.90;99.90
14188;DHT22;7175;51.978;5.330;2023-05-19T08:24:41;17.10;99.90
14188;DHT22;7175;51.978;5.330;2023-05-19T08:27:11;17.70;99.90
14188;DHT22;7175;51.978;5.330;2023-05-19T08:29:39;17.50;99.90
14188;DHT22;7175;51.978;5.330;2023-05-19T08:32:08;17.50;99.90
14188;DHT22;7175;51.978;5.330;2023-05-19T08:34:39;17.40;99.90
14188;DHT22;7175;51.978;5.330;2023-05-19T08:37:10;17.40;99.90
14188;DHT22;7175;51.978;5.330;2023-05-19T08:39:39;18.00;99.90
14188;DHT22;7175;51.978;5.330;2023-05-19T08:42:08;18.00;99.90
14188;DHT22;7175;51.978;5.330;2023-05-19T08:44:37;17.30;99.90
14188;DHT22;7175;51.978;5.330;2023-05-19T08:47:08;17.30;99.90
14188;DHT22;7175;51.978;5.330;2023-05-19T08:49:43;17.70;99.90
14188;DHT22;7175;51.978;5.330;2023-05-19T08:52:32;18.20;99.90
14188;DHT22;7175;51.978;5.330;2023-05-19T08:55:06;18.80;99.90
14188;DHT22;7175;51.978;5.330;2023-05-19T08:57:37;18.60;99.90
14188;DHT22;7175;51.978;5.330;2023-05-19T09:00:07;18.70;99.90
14188;DHT22;7175;51.978;5.330;2023-05-19T09:02:38;18.50;99.90
14188;DHT22;7175;51.978;5.330;2023-05-19T09:05:26;18.60;99.90
14188;DHT22;7175;51.978;5.330;2023-05-19T09:07:56;19.30;99.90
14188;DHT22;7175;51.978;5.330;2023-05-19T09:10:24;19.30;99.90
14188;DHT22;7175;51.978;5.330;2023-05-19T09:12:55;18.40;99.90
14188;DHT22;7175;51.978;5.330;2023-05-19T09:15:26;18.90;99.90
14188;DHT22;7175;51.978;5.330;2023-05-19T09:18:05;19.10;98.70
14188;DHT22;7175;51.978;5.330;2023-05-19T09:20:38;19.70;97.80
14188;DHT22;7175;51.978;5.330;2023-05-19T09:23:12;19.60;97.70
14188;DHT22;7175;51.978;5.330;2023-05-19T09:25:49;19.40;97.50
14188;DHT22;7175;51.978;5.330;2023-05-19T09:28:25;20.10;97.00
14188;DHT22;7175;51.978;5.330;2023-05-19T09:31:03;20.00;94.40
14188;DHT22;7175;51.978;5.330;2023-05-19T09:33:33;19.40;94.60
14188;DHT22;7175;51.978;5.330;2023-05-19T09:36:02;19.30;93.80
14188;DHT22;7175;51.978;5.330;2023-05-19T09:38:35;19.50;95.20
14188;DHT22;7175;51.978;5.330;2023-05-19T09:41:05;19.90;94.50
14188;DHT22;7175;51.978;5.330;2023-05-19T09:43:34;19.30;92.90
14188;DHT22;7175;51.978;5.330;2023-05-19T09:46:03;19.80;94.70
14188;DHT22;7175;51.978;5.330;2023-05-19T09:48:32;20.30;93.00
14188;DHT22;7175;51.978;5.330;2023-05-19T09:51:01;20.60;92.60
14188;DHT22;7175;51.978;5.330;2023-05-19T09:53:30;20.60;92.20
14188;DHT22;7175;51.978;5.330;2023-05-19T09:56:00;20.50;91.30
14188;DHT22;7175;51.978;5.330;2023-05-19T09:58:31;20.00;90.30
14188;DHT22;7175;51.978;5.330;2023-05-19T10:01:02;19.60;91.30
14188;DHT22;7175;51.978;5.330;2023-05-19T10:03:32;19.40;89.70
14188;DHT22;7175;51.978;5.330;2023-05-19T10:06:03;19.60;90.00
14188;DHT22;7175;51.978;5.330;2023-05-19T10:08:33;20.40;88.80
14188;DHT22;7175;51.978;5.330;2023-05-19T10:11:04;20.20;89.20
14188;DHT22;7175;51.978;5.330;2023-05-19T10:13:34;20.40;89.50
14188;DHT22;7175;51.978;5.330;2023-05-19T10:16:05;20.40;85.10
14188;DHT22;7175;51.978;5.330;2023-05-19T10:18:34;20.20;86.90
14188;DHT22;7175;51.978;5.330;2023-05-19T10:21:07;20.20;84.20
14188;DHT22;7175;51.978;5.330;2023-05-19T10:23:35;20.10;81.40
14188;DHT22;7175;51.978;5.330;2023-05-19T10:26:05;20.00;83.40
14188;DHT22;7175;51.978;5.330;2023-05-19T10:28:36;20.60;83.40
14188;DHT22;7175;51.978;5.330;2023-05-19T10:31:08;21.00;81.40
14188;DHT22;7175;51.978;5.330;2023-05-19T10:33:46;20.80;80.10
14188;DHT22;7175;51.978;5.330;2023-05-19T10:36:33;20.80;77.30
14188;DHT22;7175;51.978;5.330;2023-05-19T10:39:06;20.60;78.20
14188;DHT22;7175;51.978;5.330;2023-05-19T10:41:44;21.50;79.20
14188;DHT22;7175;51.978;5.330;2023-05-19T10:44:22;21.40;78.90
14188;DHT22;7175;51.978;5.330;2023-05-19T10:46:55;21.80;75.60
14188;DHT22;7175;51.978;5.330;2023-05-19T10:49:23;22.00;78.60
14188;DHT22;7175;51.978;5.330;2023-05-19T10:51:54;22.00;77.10
14188;DHT22;7175;51.978;5.330;2023-05-19T10:54:42;21.30;69.60
14188;DHT22;7175;51.978;5.330;2023-05-19T10:57:19;20.90;70.00
14188;DHT22;7175;51.978;5.330;2023-05-19T10:59:51;20.70;70.90
14188;DHT22;7175;51.978;5.330;2023-05-19T11:02:43;21.60;72.90
14188;DHT22;7175;51.978;5.330;2023-05-19T11:05:14;22.50;71.10
14188;DHT22;7175;51.978;5.330;2023-05-19T11:07:57;21.20;68.60
14188;DHT22;7175;51.978;5.330;2023-05-19T11:10:28;21.20;71.00
14188;DHT22;7175;51.978;5.330;2023-05-19T11:12:58;21.20;69.60
14188;DHT22;7175;51.978;5.330;2023-05-19T11:15:27;21.70;68.10
14188;DHT22;7175;51.978;5.330;2023-05-19T11:17:55;22.20;69.20
14188;DHT22;7175;51.978;5.330;2023-05-19T11:20:25;22.80;68.50
14188;DHT22;7175;51.978;5.330;2023-05-19T11:23:04;21.70;66.80
14188;DHT22;7175;51.978;5.330;2023-05-19T11:25:43;21.20;68.30
14188;DHT22;7175;51.978;5.330;2023-05-19T11:28:17;21.70;66.10
14188;DHT22;7175;51.978;5.330;2023-05-19T11:30:53;21.90;67.70
14188;DHT22;7175;51.978;5.330;2023-05-19T11:33:24;21.70;66.00
14188;DHT22;7175;51.978;5.330;2023-05-19T11:35:54;21.90;67.00
14188;DHT22;7175;51.978;5.330;2023-05-19T11:38:25;22.50;68.80
14188;DHT22;7175;51.978;5.330;2023-05-19T11:40:54;22.70;65.60
14188;DHT22;7175;51.978;5.330;2023-05-19T11:43:24;22.50;63.30
14188;DHT22;7175;51.978;5.330;2023-05-19T11:45:53;22.60;64.90
14188;DHT22;7175;51.978;5.330;2023-05-19T11:48:22;22.60;63.40
14188;DHT22;7175;51.978;5.330;2023-05-19T11:50:51;23.60;62.80
14188;DHT22;7175;51.978;5.330;2023-05-19T11:53:19;23.90;60.20
14188;DHT22;7175;51.978;5.330;2023-05-19T11:55:48;21.80;58.20
14188;DHT22;7175;51.978;5.330;2023-05-19T11:58:17;22.60;58.50
14188;DHT22;7175;51.978;5.330;2023-05-19T12:00:53;22.50;56.80
14188;DHT22;7175;51.978;5.330;2023-05-19T12:03:22;22.70;56.60
14188;DHT22;7175;51.978;5.330;2023-05-19T12:05:54;23.80;57.70
14188;DHT22;7175;51.978;5.330;2023-05-19T12:08:22;23.40;54.60
14188;DHT22;7175;51.978;5.330;2023-05-19T12:10:51;23.50;57.30
14188;DHT22;7175;51.978;5.330;2023-05-19T12:13:21;23.60;57.50
14188;DHT22;7175;51.978;5.330;2023-05-19T12:15:49;23.10;56.80
14188;DHT22;7175;51.978;5.330;2023-05-19T12:18:20;23.30;58.90
14188;DHT22;7175;51.978;5.330;2023-05-19T12:20:48;23.10;55.00
14188;DHT22;7175;51.978;5.330;2023-05-19T12:23:17;22.80;55.30
14188;DHT22;7175;51.978;5.330;2023-05-19T12:25:46;22.80;56.10
14188;DHT22;7175;51.978;5.330;2023-05-19T12:28:15;23.10;54.60
14188;DHT22;7175;51.978;5.330;2023-05-19T12:30:46;23.00;57.30
14188;DHT22;7175;51.978;5.330;2023-05-19T12:33:15;23.20;58.70
14188;DHT22;7175;51.978;5.330;2023-05-19T12:35:45;23.30;56.20
14188;DHT22;7175;51.978;5.330;2023-05-19T12:38:15;23.30;58.50
14188;DHT22;7175;51.978;5.330;2023-05-19T12:40:43;22.90;58.80
14188;DHT22;7175;51.978;5.330;2023-05-19T12:43:18;22.10;58.00
14188;DHT22;7175;51.978;5.330;2023-05-19T12:45:48;21.30;57.70
14188;DHT22;7175;51.978;5.330;2023-05-19T12:48:16;20.70;59.70
14188;DHT22;7175;51.978;5.330;2023-05-19T12:50:50;21.30;61.90
14188;DHT22;7175;51.978;5.330;2023-05-19T12:53:19;22.10;60.30
14188;DHT22;7175;51.978;5.330;2023-05-19T12:55:51;22.90;58.70
14188;DHT22;7175;51.978;5.330;2023-05-19T12:58:19;22.80;59.00
14188;DHT22;7175;51.978;5.330;2023-05-19T13:00:49;22.80;59.50
14188;DHT22;7175;51.978;5.330;2023-05-19T13:03:19;23.30;58.30
14188;DHT22;7175;51.978;5.330;2023-05-19T13:05:50;23.90;58.30
14188;DHT22;7175;51.978;5.330;2023-05-19T13:08:20;23.30;58.60
14188;DHT22;7175;51.978;5.330;2023-05-19T13:10:50;22.90;56.30
14188;DHT22;7175;51.978;5.330;2023-05-19T13:13:18;22.70;58.60
14188;DHT22;7175;51.978;5.330;2023-05-19T13:15:46;22.90;61.40
14188;DHT22;7175;51.978;5.330;2023-05-19T13:18:15;23.20;58.30
14188;DHT22;7175;51.978;5.330;2023-05-19T13:20:45;23.30;60.70
14188;DHT22;7175;51.978;5.330;2023-05-19T13:23:17;22.90;57.60
14188;DHT22;7175;51.978;5.330;2023-05-19T13:25:48;23.00;58.70
14188;DHT22;7175;51.978;5.330;2023-05-19T13:28:16;22.50;57.90
14188;DHT22;7175;51.978;5.330;2023-05-19T13:30:44;23.20;60.10
14188;DHT22;7175;51.978;5.330;2023-05-19T13:33:13;23.50;60.00
14188;DHT22;7175;51.978;5.330;2023-05-19T13:35:41;23.20;58.80
14188;DHT22;7175;51.978;5.330;2023-05-19T13:38:09;23.00;57.10
14188;DHT22;7175;51.978;5.330;2023-05-19T13:40:39;23.00;57.40
14188;DHT22;7175;51.978;5.330;2023-05-19T13:43:07;23.50;57.30
14188;DHT22;7175;51.978;5.330;2023-05-19T13:45:36;23.40;57.40
14188;DHT22;7175;51.978;5.330;2023-05-19T13:48:04;23.00;55.90
14188;DHT22;7175;51.978;5.330;2023-05-19T13:50:33;22.90;57.50
14188;DHT22;7175;51.978;5.330;2023-05-19T13:53:03;23.10;56.20
14188;DHT22;7175;51.978;5.330;2023-05-19T13:55:31;23.30;55.10
14188;DHT22;7175;51.978;5.330;2023-05-19T13:58:01;24.10;55.80
14188;DHT22;7175;51.978;5.330;2023-05-19T14:00:30;23.60;53.90
14188;DHT22;7175;51.978;5.330;2023-05-19T14:03:00;22.90;54.30
14188;DHT22;7175;51.978;5.330;2023-05-19T14:05:28;22.90;56.00
14188;DHT22;7175;51.978;5.330;2023-05-19T14:07:57;22.20;56.50
14188;DHT22;7175;51.978;5.330;2023-05-19T14:10:27;23.30;55.70
14188;DHT22;7175;51.978;5.330;2023-05-19T14:12:55;23.20;55.80
14188;DHT22;7175;51.978;5.330;2023-05-19T14:15:30;23.70;54.30
14188;DHT22;7175;51.978;5.330;2023-05-19T14:18:00;23.50;55.30
14188;DHT22;7175;51.978;5.330;2023-05-19T14:20:30;22.50;55.80
14188;DHT22;7175;51.978;5.330;2023-05-19T14:22:59;22.00;56.30
14188;DHT22;7175;51.978;5.330;2023-05-19T14:25:27;22.50;57.50
14188;DHT22;7175;51.978;5.330;2023-05-19T14:27:55;22.20;56.50
14188;DHT22;7175;51.978;5.330;2023-05-19T14:30:24;22.20;57.10
14188;DHT22;7175;51.978;5.330;2023-05-19T14:32:53;22.20;56.10
14188;DHT22;7175;51.978;5.330;2023-05-19T14:35:22;22.70;57.90
14188;DHT22;7175;51.978;5.330;2023-05-19T14:37:50;22.90;57.10
14188;DHT22;7175;51.978;5.330;2023-05-19T14:40:19;22.90;56.90
14188;DHT22;7175;51.978;5.330;2023-05-19T14:42:47;22.40;57.10
14188;DHT22;7175;51.978;5.330;2023-05-19T14:45:15;22.30;59.10
14188;DHT22;7175;51.978;5.330;2023-05-19T14:47:43;21.60;58.70
14188;DHT22;7175;51.978;5.330;2023-05-19T14:50:15;21.80;59.00
14188;DHT22;7175;51.978;5.330;2023-05-19T14:52:43;22.20;60.90
14188;DHT22;7175;51.978;5.330;2023-05-19T14:55:11;22.50;59.50
14188;DHT22;7175;51.978;5.330;2023-05-19T14:57:39;22.00;58.00
14188;DHT22;7175;51.978;5.330;2023-05-19T15:00:08;22.40;60.40
14188;DHT22;7175;51.978;5.330;2023-05-19T15:02:37;21.60;58.60
14188;DHT22;7175;51.978;5.330;2023-05-19T15:05:05;21.50;63.10
14188;DHT22;7175;51.978;5.330;2023-05-19T15:07:35;21.70;63.90
14188;DHT22;7175;51.978;5.330;2023-05-19T15:10:04;21.80;62.80
14188;DHT22;7175;51.978;5.330;2023-05-19T15:12:32;22.10;64.20
14188;DHT22;7175;51.978;5.330;2023-05-19T15:15:00;21.80;60.40
14188;DHT22;7175;51.978;5.330;2023-05-19T15:17:28;21.50;61.00
14188;DHT22;7175;51.978;5.330;2023-05-19T15:19:57;21.70;64.50
14188;DHT22;7175;51.978;5.330;2023-05-19T15:22:25;21.50;65.20
14188;DHT22;7175;51.978;5.330;2023-05-19T15:24:54;21.70;65.90
14188;DHT22;7175;51.978;5.330;2023-05-19T15:27:25;21.40;65.90
14188;DHT22;7175;51.978;5.330;2023-05-19T15:29:53;21.30;64.20
14188;DHT22;7175;51.978;5.330;2023-05-19T15:32:21;21.00;63.50
14188;DHT22;7175;51.978;5.330;2023-05-19T15:34:50;21.20;64.50
14188;DHT22;7175;51.978;5.330;2023-05-19T15:37:18;21.10;66.70
14188;DHT22;7175;51.978;5.330;2023-05-19T15:39:46;21.00;67.40
14188;DHT22;7175;51.978;5.330;2023-05-19T15:42:16;21.20;67.80
14188;DHT22;7175;51.978;5.330;2023-05-19T15:44:44;21.00;67.60
14188;DHT22;7175;51.978;5.330;2023-05-19T15:47:13;20.90;68.50
14188;DHT22;7175;51.978;5.330;2023-05-19T15:49:42;20.80;69.20
14188;DHT22;7175;51.978;5.330;2023-05-19T15:52:11;20.80;66.70
14188;DHT22;7175;51.978;5.330;2023-05-19T15:54:40;20.70;68.80
14188;DHT22;7175;51.978;5.330;2023-05-19T15:57:08;20.40;68.00
14188;DHT22;7175;51.978;5.330;2023-05-19T15:59:37;20.20;67.90
14188;DHT22;7175;51.978;5.330;2023-05-19T16:02:06;20.40;71.40
14188;DHT22;7175;51.978;5.330;2023-05-19T16:04:34;20.40;69.00
14188;DHT22;7175;51.978;5.330;2023-05-19T16:07:03;20.40;67.20
14188;DHT22;7175;51.978;5.330;2023-05-19T16:09:32;20.60;69.70